Time;durP1;ratioP1;P1;durP2;ratioP2;P2;SDS_P1;SDS_P2;PMS_P1;PMS_P2;Temp;Humidity;BMP_temperature;BMP_pressure;BME280_temperature;BME280_humidity;BME280_pressure;Samples;Min_cycle;Max_cycle;Signal;HPM_P1;HPM_P2
2022/11/22 00:00:27;;;;;;;48.63;23.60;;;4.30;99.90;;;;;;5092606;28;20097;-80
2022/11/22 00:02:52;;;;;;;42.90;22.53;;;4.20;99.90;;;;;;5094158;28;20056;-79
2022/11/22 00:05:19;;;;;;;44.87;23.40;;;4.30;99.90;;;;;;5096110;28;20286;-79
2022/11/22 00:07:45;;;;;;;45.88;21.75;;;4.30;99.90;;;;;;5096307;28;20052;-80
2022/11/22 00:10:11;;;;;;;41.83;22.03;;;4.30;99.90;;;;;;5095967;28;20044;-79
2022/11/22 00:12:38;;;;;;;43.15;21.00;;;4.30;99.90;;;;;;5096212;28;20408;-79
2022/11/22 00:15:05;;;;;;;37.88;19.85;;;4.30;99.90;;;;;;5095971;28;20463;-79
2022/11/22 00:17:32;;;;;;;37.88;20.67;;;4.30;99.90;;;;;;5096031;28;20492;-79
2022/11/22 00:19:58;;;;;;;48.08;23.08;;;4.40;99.90;;;;;;5096312;28;20048;-79
2022/11/22 00:22:23;;;;;;;40.50;21.30;;;4.30;99.90;;;;;;5095986;28;20127;-79
2022/11/22 00:24:51;;;;;;;42.80;20.87;;;4.40;99.90;;;;;;5095215;28;20058;-79
2022/11/22 00:27:17;;;;;;;37.25;20.73;;;4.30;99.90;;;;;;5095654;28;20044;-80
2022/11/22 00:29:43;;;;;;;43.85;22.63;;;4.30;99.90;;;;;;5096107;28;20082;-80
2022/11/22 00:32:09;;;;;;;36.63;20.30;;;4.30;99.90;;;;;;5095607;28;20044;-80
2022/11/22 00:34:34;;;;;;;43.63;21.97;;;4.30;99.90;;;;;;5094900;28;20139;-80
2022/11/22 00:37:00;;;;;;;42.93;20.30;;;4.20;99.90;;;;;;5095533;28;20043;-80
2022/11/22 00:39:26;;;;;;;40.13;20.47;;;4.30;99.90;;;;;;5094795;28;20056;-80
2022/11/22 00:41:51;;;;;;;37.57;19.73;;;4.30;99.90;;;;;;5095648;28;20391;-79
2022/11/22 00:44:17;;;;;;;37.93;19.87;;;4.30;99.90;;;;;;5094329;28;20051;-79
2022/11/22 00:46:43;;;;;;;33.83;19.17;;;4.30;99.90;;;;;;5095359;28;20044;-79
2022/11/22 00:49:08;;;;;;;38.03;19.77;;;4.30;99.90;;;;;;5095529;28;20047;-80
2022/11/22 00:51:34;;;;;;;36.60;18.90;;;4.30;99.90;;;;;;5095531;28;20040;-79
2022/11/22 00:54:00;;;;;;;33.13;18.10;;;4.30;99.90;;;;;;5094659;28;20101;-79
2022/11/22 00:56:26;;;;;;;32.53;17.23;;;4.40;99.90;;;;;;5094172;28;20048;-79
2022/11/22 00:58:51;;;;;;;31.03;17.07;;;4.30;99.90;;;;;;5095357;28;20048;-79
2022/11/22 01:01:17;;;;;;;31.13;18.20;;;4.30;99.90;;;;;;5094955;28;20044;-80
2022/11/22 01:03:43;;;;;;;34.93;17.27;;;4.30;99.90;;;;;;5095351;28;20548;-80
2022/11/22 01:06:08;;;;;;;33.50;18.23;;;4.30;99.90;;;;;;5077073;28;20422;-79
2022/11/22 01:08:34;;;;;;;30.07;16.03;;;4.30;99.90;;;;;;5093893;28;20044;-80
2022/11/22 01:11:01;;;;;;;34.17;17.83;;;4.40;99.90;;;;;;5094804;28;20075;-80
2022/11/22 01:13:28;;;;;;;31.88;17.50;;;4.30;99.90;;;;;;5094202;28;20119;-79
2022/11/22 01:16:02;;;;;;;31.80;17.92;;;4.30;99.90;;;;;;5094258;28;20495;-79
2022/11/22 01:18:28;;;;;;;29.02;16.58;;;4.30;99.90;;;;;;5093721;28;20052;-79
2022/11/22 01:20:54;;;;;;;28.67;18.02;;;4.30;99.90;;;;;;5094791;28;20043;-78
2022/11/22 01:23:20;;;;;;;32.40;17.57;;;4.30;99.90;;;;;;5094240;28;20047;-78
2022/11/22 01:25:46;;;;;;;35.90;17.80;;;4.30;99.90;;;;;;5093917;28;20051;-78
2022/11/22 01:28:11;;;;;;;35.00;17.43;;;4.30;99.90;;;;;;5093251;28;20391;-78
2022/11/22 01:30:37;;;;;;;30.30;17.93;;;4.30;99.90;;;;;;5094630;28;20047;-78
2022/11/22 01:33:03;;;;;;;28.67;17.23;;;4.30;99.90;;;;;;5094655;28;20052;-78
2022/11/22 01:35:29;;;;;;;36.00;18.30;;;4.30;99.90;;;;;;5094331;28;20127;-79
2022/11/22 01:37:54;;;;;;;33.83;18.50;;;4.30;99.90;;;;;;5093800;28;20522;-79
2022/11/22 01:40:20;;;;;;;28.77;16.90;;;4.30;99.90;;;;;;5094142;28;20066;-78
2022/11/22 01:42:50;;;;;;;34.97;18.77;;;4.40;99.90;;;;;;5094487;28;20048;-79
2022/11/22 01:45:28;;;;;;;28.70;16.90;;;4.30;99.90;;;;;;5075551;28;20449;-79
2022/11/22 01:48:12;;;;;;;33.67;18.67;;;4.30;99.90;;;;;;5094385;28;20089;-78
2022/11/22 01:50:41;;;;;;;33.25;18.42;;;4.30;99.90;;;;;;5094168;28;20446;-78
2022/11/22 01:53:12;;;;;;;31.17;19.10;;;4.30;99.90;;;;;;5094344;28;20544;-78
2022/11/22 01:55:39;;;;;;;33.10;18.42;;;4.30;99.90;;;;;;5094262;28;20119;-78
2022/11/22 01:58:06;;;;;;;45.25;20.70;;;4.20;99.90;;;;;;5094175;28;20193;-78
2022/11/22 02:00:31;;;;;;;31.75;19.05;;;4.20;99.90;;;;;;5093795;28;20048;-78
2022/11/22 02:03:01;;;;;;;37.20;20.03;;;4.30;99.90;;;;;;5094322;28;20480;-78
2022/11/22 02:05:33;;;;;;;36.95;21.52;;;4.20;99.90;;;;;;5093732;28;20044;-78
2022/11/22 02:08:18;;;;;;;34.22;19.30;;;4.20;99.90;;;;;;5094015;28;20116;-78
2022/11/22 02:10:49;;;;;;;40.35;20.15;;;4.20;99.90;;;;;;5094075;28;20047;-78
2022/11/22 02:13:17;;;;;;;40.25;21.00;;;4.20;99.90;;;;;;5093703;28;20066;-78
2022/11/22 02:15:42;;;;;;;37.97;21.20;;;4.20;99.90;;;;;;5093862;28;20054;-78
2022/11/22 02:18:08;;;;;;;36.77;20.40;;;4.20;99.90;;;;;;5094006;28;20048;-78
2022/11/22 02:20:34;;;;;;;36.37;20.03;;;4.20;99.90;;;;;;5093415;28;20484;-78
2022/11/22 02:23:06;;;;;;;36.10;20.88;;;4.20;99.90;;;;;;5093739;28;20058;-78
2022/11/22 02:25:42;;;;;;;38.55;21.25;;;4.20;99.90;;;;;;5092244;28;20185;-78
2022/11/22 02:28:08;;;;;;;37.47;19.73;;;4.20;99.90;;;;;;5093785;28;20059;-78
2022/11/22 02:30:38;;;;;;;39.95;20.13;;;4.20;99.90;;;;;;5093008;28;20157;-78
2022/11/22 02:33:05;;;;;;;44.97;22.13;;;4.30;99.90;;;;;;5093871;28;20133;-78
2022/11/22 02:35:30;;;;;;;37.97;20.73;;;4.30;99.90;;;;;;5093305;28;20083;-78
2022/11/22 02:37:59;;;;;;;35.60;20.57;;;4.30;99.90;;;;;;5093710;28;20153;-79
2022/11/22 02:40:28;;;;;;;36.13;20.20;;;4.30;99.90;;;;;;5092041;28;20133;-79
2022/11/22 02:43:06;;;;;;;36.17;20.50;;;4.30;99.90;;;;;;5093428;28;20044;-79
2022/11/22 02:45:32;;;;;;;35.25;20.00;;;4.40;99.90;;;;;;5093146;28;20145;-79
2022/11/22 02:48:12;;;;;;;31.10;19.10;;;4.40;99.90;;;;;;5093413;28;20505;-79
2022/11/22 02:50:38;;;;;;;44.25;21.30;;;4.40;99.90;;;;;;5093149;28;20306;-79
2022/11/22 02:53:05;;;;;;;33.35;19.48;;;4.40;99.90;;;;;;5093376;28;20075;-79
2022/11/22 02:55:31;;;;;;;37.03;19.67;;;4.40;99.90;;;;;;5093050;28;20047;-79
2022/11/22 02:57:56;;;;;;;34.17;19.57;;;4.40;99.90;;;;;;5093229;28;20388;-80
2022/11/22 03:00:23;;;;;;;39.20;20.83;;;4.50;99.90;;;;;;5091565;28;20286;-79
2022/11/22 03:02:48;;;;;;;36.70;21.30;;;4.40;99.90;;;;;;5093396;28;20083;-80
2022/11/22 03:05:14;;;;;;;33.57;20.23;;;4.40;99.90;;;;;;5092010;28;20503;-80
2022/11/22 03:07:40;;;;;;;36.80;21.23;;;4.40;99.90;;;;;;5091965;28;20076;-80
2022/11/22 03:10:06;;;;;;;36.13;22.17;;;4.40;99.90;;;;;;5093163;28;20369;-79
2022/11/22 03:12:32;;;;;;;33.85;21.23;;;4.50;99.90;;;;;;5091850;28;20060;-79
2022/11/22 03:14:57;;;;;;;38.40;20.97;;;4.40;99.90;;;;;;5093327;28;20097;-80
2022/11/22 03:17:23;;;;;;;41.03;21.43;;;4.50;99.90;;;;;;5091447;28;20048;-80
2022/11/22 03:19:48;;;;;;;38.47;23.07;;;4.50;99.90;;;;;;5093136;28;20051;-80
2022/11/22 03:22:14;;;;;;;33.47;21.70;;;4.50;99.90;;;;;;5091867;28;20499;-80
2022/11/22 03:24:40;;;;;;;38.63;22.20;;;4.50;99.90;;;;;;5108905;28;21116;-80
2022/11/22 03:27:06;;;;;;;44.57;23.80;;;4.40;99.90;;;;;;5092304;28;20056;-80
2022/11/22 03:29:31;;;;;;;44.15;21.45;;;4.50;99.90;;;;;;5092611;28;20056;-80
2022/11/22 03:31:57;;;;;;;43.43;22.30;;;4.50;99.90;;;;;;5074907;28;20044;-80
2022/11/22 03:34:23;;;;;;;49.70;23.70;;;4.50;99.90;;;;;;5091697;28;20048;-81
2022/11/22 03:36:48;;;;;;;42.47;22.50;;;4.60;99.90;;;;;;5091928;28;20070;-80
2022/11/22 03:39:14;;;;;;;40.03;21.83;;;4.50;99.90;;;;;;5095927;28;20135;-80
2022/11/22 03:41:40;;;;;;;46.77;24.53;;;4.50;99.90;;;;;;5096497;28;20048;-79
2022/11/22 03:44:06;;;;;;;39.40;22.37;;;4.50;99.90;;;;;;5096955;28;20040;-80
2022/11/22 03:46:32;;;;;;;37.83;22.03;;;4.50;99.90;;;;;;5096591;28;20112;-80
2022/11/22 03:48:57;;;;;;;39.20;22.80;;;4.50;99.90;;;;;;5095704;28;20048;-80
2022/11/22 03:51:23;;;;;;;41.10;22.13;;;4.50;99.90;;;;;;5096447;28;20046;-81
2022/11/22 03:53:49;;;;;;;38.67;22.00;;;4.50;99.90;;;;;;5095980;28;20040;-80
2022/11/22 03:56:15;;;;;;;40.27;21.90;;;4.50;99.90;;;;;;5096703;28;20055;-80
2022/11/22 03:58:40;;;;;;;38.87;22.27;;;4.50;99.90;;;;;;5096250;28;20068;-80
2022/11/22 04:01:06;;;;;;;43.03;23.97;;;4.60;99.90;;;;;;5096424;28;20433;-80
2022/11/22 04:03:32;;;;;;;38.33;22.53;;;4.60;99.90;;;;;;5096192;28;20488;-80
2022/11/22 04:05:57;;;;;;;44.10;23.03;;;4.60;99.90;;;;;;5096398;28;20432;-80
2022/11/22 04:08:23;;;;;;;43.80;23.83;;;4.60;99.90;;;;;;5096396;28;20135;-79
2022/11/22 04:10:49;;;;;;;40.47;23.27;;;4.60;99.90;;;;;;5096085;28;20109;-79
2022/11/22 04:13:15;;;;;;;32.97;20.52;;;4.60;99.90;;;;;;5096298;28;20052;-79
2022/11/22 04:15:41;;;;;;;39.77;22.40;;;4.60;99.90;;;;;;5095905;28;20048;-80
2022/11/22 04:18:11;;;;;;;40.27;22.70;;;4.60;99.90;;;;;;5096178;28;20369;-80
2022/11/22 04:23:23;;;;;;;41.63;23.10;;;4.60;99.90;;;;;;5096183;28;20043;-80
2022/11/22 04:25:54;;;;;;;39.78;23.08;;;4.70;99.90;;;;;;5095759;28;20059;-81
2022/11/22 04:28:24;;;;;;;43.83;24.08;;;4.70;99.90;;;;;;5095829;28;20040;-79
2022/11/22 04:33:35;;;;;;;48.53;24.08;;;4.70;99.90;;;;;;5095712;28;20113;-81
2022/11/22 04:36:01;;;;;;;49.17;25.17;;;4.80;99.90;;;;;;5096071;28;20048;-80
2022/11/22 04:38:27;;;;;;;43.03;23.87;;;4.80;99.90;;;;;;5095820;28;20117;-80
2022/11/22 04:40:53;;;;;;;38.37;22.93;;;4.80;99.90;;;;;;5094405;28;20043;-80
2022/11/22 04:46:09;;;;;;;38.28;22.00;;;4.80;99.90;;;;;;5095806;28;20048;-81
2022/11/22 04:48:35;;;;;;;35.93;22.40;;;4.80;99.90;;;;;;5094366;28;20491;-81
2022/11/22 04:53:45;;;;;;;42.55;23.63;;;4.80;99.90;;;;;;5094270;28;20048;-81
2022/11/22 04:56:12;;;;;;;47.17;24.57;;;4.80;99.90;;;;;;5077663;28;20112;-80
2022/11/22 04:58:38;;;;;;;43.13;24.33;;;4.90;99.90;;;;;;5095041;28;20052;-81
2022/11/22 05:01:04;;;;;;;36.38;22.17;;;4.80;99.90;;;;;;5077636;28;20054;-81
2022/11/22 05:03:30;;;;;;;42.93;22.73;;;4.90;99.90;;;;;;5095420;28;20122;-81
2022/11/22 05:05:55;;;;;;;43.27;23.00;;;4.90;99.90;;;;;;5094971;28;20056;-80
2022/11/22 05:08:21;;;;;;;40.20;23.23;;;4.90;99.90;;;;;;5094133;28;20101;-81
2022/11/22 05:10:57;;;;;;;39.50;23.57;;;4.90;99.90;;;;;;5094948;28;20079;-81
2022/11/22 05:13:34;;;;;;;50.25;24.90;;;4.90;99.90;;;;;;5095151;28;20534;-81
2022/11/22 05:16:02;;;;;;;43.28;23.75;;;4.90;99.90;;;;;;5095094;28;20040;-80
2022/11/22 05:18:28;;;;;;;38.22;23.90;;;4.90;99.90;;;;;;5095204;28;20439;-81
2022/11/22 05:20:55;;;;;;;43.78;24.23;;;5.00;99.90;;;;;;5094481;28;20047;-80
2022/11/22 05:26:07;;;;;;;39.35;22.45;;;4.90;99.90;;;;;;5095228;28;20083;-81
2022/11/22 05:28:35;;;;;;;43.53;24.50;;;5.00;99.90;;;;;;5094691;28;20074;-80
2022/11/22 05:31:12;;;;;;;40.33;22.98;;;5.00;99.90;;;;;;5094848;28;20102;-80
2022/11/22 05:33:40;;;;;;;44.30;24.38;;;5.00;99.90;;;;;;5094493;28;20055;-81
2022/11/22 05:36:07;;;;;;;43.50;24.27;;;5.00;99.90;;;;;;5110799;28;20044;-81
2022/11/22 05:38:36;;;;;;;41.85;23.92;;;5.00;99.90;;;;;;5094597;28;20048;-80
2022/11/22 05:41:03;;;;;;;50.42;25.10;;;5.10;99.90;;;;;;5094471;28;20052;-81
2022/11/22 05:43:30;;;;;;;40.22;24.50;;;5.10;99.90;;;;;;5094495;28;20047;-80
2022/11/22 05:46:03;;;;;;;45.28;24.02;;;5.10;99.90;;;;;;5094135;28;20052;-80
2022/11/22 05:48:28;;;;;;;40.47;24.23;;;5.10;99.90;;;;;;5094522;28;20146;-81
2022/11/22 05:50:54;;;;;;;40.00;22.43;;;5.10;99.90;;;;;;5076175;28;20091;-81
2022/11/22 05:53:20;;;;;;;36.33;21.53;;;5.10;99.90;;;;;;5093262;28;20046;-81
2022/11/22 05:55:45;;;;;;;40.73;22.57;;;5.10;99.90;;;;;;5093055;28;20056;-80
2022/11/22 05:58:11;;;;;;;42.33;22.90;;;5.20;99.90;;;;;;5094492;28;20055;-81
2022/11/22 06:00:36;;;;;;;49.07;24.43;;;5.20;99.90;;;;;;5092420;28;20040;-81
2022/11/22 06:03:03;;;;;;;40.90;23.57;;;5.20;99.90;;;;;;5092307;28;20048;-80
2022/11/22 06:05:29;;;;;;;51.20;24.70;;;5.20;99.90;;;;;;5094191;28;20444;-80
2022/11/22 06:07:59;;;;;;;37.55;21.63;;;5.20;99.90;;;;;;5093814;28;20048;-80
2022/11/22 06:10:25;;;;;;;42.35;21.65;;;5.20;99.90;;;;;;5094026;28;20054;-80
2022/11/22 06:12:51;;;;;;;38.77;22.40;;;5.20;99.90;;;;;;5093710;28;20044;-81
2022/11/22 06:15:16;;;;;;;45.55;22.08;;;5.20;99.90;;;;;;5093947;28;20048;-80
2022/11/22 06:17:42;;;;;;;48.20;22.00;;;5.20;99.90;;;;;;5092428;28;20048;-81
2022/11/22 06:20:08;;;;;;;42.20;20.43;;;5.20;99.90;;;;;;5076033;28;20044;-81
2022/11/22 06:22:34;;;;;;;44.13;22.45;;;5.20;99.90;;;;;;5093783;28;20387;-81
2022/11/22 06:25:00;;;;;;;30.07;18.77;;;5.20;99.90;;;;;;5092616;28;20040;-81
2022/11/22 06:27:25;;;;;;;40.67;20.13;;;5.20;99.90;;;;;;5093825;28;20091;-81
2022/11/22 06:29:51;;;;;;;41.60;20.70;;;5.20;99.90;;;;;;5093437;28;20400;-80
2022/11/22 06:32:17;;;;;;;36.80;19.77;;;5.20;99.90;;;;;;5093850;28;20364;-81
2022/11/22 06:34:43;;;;;;;37.50;19.73;;;5.20;99.90;;;;;;5093285;28;20198;-81
2022/11/22 06:37:09;;;;;;;42.70;19.45;;;5.30;99.90;;;;;;5092554;28;20063;-81
2022/11/22 06:39:35;;;;;;;37.90;19.47;;;5.30;99.90;;;;;;5093614;28;20123;-81
2022/11/22 06:42:00;;;;;;;37.50;18.30;;;5.30;99.90;;;;;;5091948;28;20796;-81
2022/11/22 06:44:26;;;;;;;32.17;16.97;;;5.30;99.90;;;;;;5093735;28;20097;-81
2022/11/22 06:46:52;;;;;;;36.80;18.23;;;5.30;99.90;;;;;;5093350;28;20400;-81
2022/11/22 06:49:17;;;;;;;35.63;17.33;;;5.30;99.90;;;;;;5093569;28;20044;-81
2022/11/22 06:51:43;;;;;;;40.33;17.50;;;5.20;99.90;;;;;;5092526;28;20109;-81
2022/11/22 06:54:12;;;;;;;39.70;17.33;;;5.30;99.90;;;;;;5092302;28;20492;-81
2022/11/22 06:56:40;;;;;;;40.45;17.30;;;5.20;99.90;;;;;;5093507;28;20052;-81
2022/11/22 06:59:06;;;;;;;42.00;18.27;;;5.20;99.90;;;;;;5093019;28;20067;-81
2022/11/22 07:01:34;;;;;;;36.40;17.27;;;5.20;99.90;;;;;;5092106;28;20044;-81
2022/11/22 07:04:00;;;;;;;37.42;16.40;;;5.20;99.90;;;;;;5092931;28;20079;-81
2022/11/22 07:06:37;;;;;;;36.15;18.13;;;5.20;99.90;;;;;;5075464;28;20122;-81
2022/11/22 07:09:06;;;;;;;36.58;16.17;;;5.20;99.90;;;;;;5093238;28;20048;-81
2022/11/22 07:11:32;;;;;;;35.70;16.02;;;5.20;99.90;;;;;;5092199;28;20127;-81
2022/11/22 07:14:00;;;;;;;34.58;15.98;;;5.10;99.90;;;;;;5096651;28;20074;-81
2022/11/22 07:16:25;;;;;;;32.42;15.05;;;5.10;99.90;;;;;;5096501;28;20079;-81
2022/11/22 07:18:51;;;;;;;30.43;12.37;;;5.10;99.90;;;;;;5095849;28;20082;-81
2022/11/22 07:21:20;;;;;;;30.80;13.87;;;5.10;99.90;;;;;;5096181;28;20051;-81
2022/11/22 07:23:48;;;;;;;38.97;13.50;;;5.10;99.90;;;;;;5097263;28;20044;-81
2022/11/22 07:26:15;;;;;;;29.90;13.38;;;5.10;99.90;;;;;;5097562;28;20396;-81
2022/11/22 07:28:41;;;;;;;32.17;13.43;;;5.10;99.90;;;;;;5096862;28;20369;-80
2022/11/22 07:31:09;;;;;;;30.42;12.80;;;5.10;99.90;;;;;;5096904;28;20056;-82
2022/11/22 07:33:35;;;;;;;25.05;12.43;;;5.10;99.90;;;;;;5096088;28;20047;-81
2022/11/22 07:36:14;;;;;;;31.73;12.50;;;5.10;99.90;;;;;;5095784;28;20057;-82
2022/11/22 07:38:40;;;;;;;24.15;10.93;;;5.10;99.90;;;;;;5096935;28;20734;-81
2022/11/22 07:41:07;;;;;;;28.37;10.70;;;5.00;99.90;;;;;;5096833;28;20047;-81
2022/11/22 07:43:33;;;;;;;25.95;10.00;;;5.00;99.90;;;;;;5097123;28;20044;-81
2022/11/22 07:46:00;;;;;;;29.02;10.25;;;5.00;99.90;;;;;;5096567;28;20048;-82
2022/11/22 07:48:25;;;;;;;26.40;9.40;;;5.00;99.90;;;;;;5095819;28;20489;-82
2022/11/22 07:50:51;;;;;;;26.17;9.70;;;5.00;99.90;;;;;;5096567;28;20036;-82
2022/11/22 07:53:17;;;;;;;19.80;8.70;;;5.00;99.90;;;;;;5096767;28;20127;-81
2022/11/22 07:55:42;;;;;;;27.93;9.33;;;5.00;99.90;;;;;;5096633;28;20048;-82
2022/11/22 07:58:08;;;;;;;21.87;8.03;;;5.00;99.90;;;;;;5095049;28;20093;-82
2022/11/22 08:00:34;;;;;;;28.23;8.70;;;5.00;99.90;;;;;;5096436;28;20051;-82
2022/11/22 08:02:59;;;;;;;24.43;8.37;;;5.00;99.90;;;;;;5096234;28;20051;-82
2022/11/22 08:05:26;;;;;;;23.87;7.43;;;5.00;99.90;;;;;;5096590;28;20098;-82
2022/11/22 08:07:53;;;;;;;26.98;7.18;;;5.00;99.90;;;;;;5078527;28;20051;-81
2022/11/22 08:10:19;;;;;;;25.23;6.78;;;5.00;99.90;;;;;;5096221;28;20051;-82
2022/11/22 08:12:46;;;;;;;19.50;6.07;;;5.00;99.90;;;;;;5095309;28;20101;-82
2022/11/22 08:15:13;;;;;;;19.35;6.55;;;5.00;99.90;;;;;;5096090;28;20087;-82
2022/11/22 08:17:38;;;;;;;22.85;5.95;;;5.10;99.90;;;;;;5095346;28;20048;-81
2022/11/22 08:20:07;;;;;;;18.27;6.07;;;5.20;99.90;;;;;;5095984;28;20403;-81
2022/11/22 08:22:34;;;;;;;22.42;6.28;;;5.20;99.90;;;;;;5077857;28;20047;-81
2022/11/22 08:25:00;;;;;;;23.75;5.85;;;5.20;99.90;;;;;;5094496;28;20054;-82
2022/11/22 08:27:26;;;;;;;22.57;5.90;;;5.20;99.90;;;;;;5095976;28;20052;-82
2022/11/22 08:29:51;;;;;;;17.90;6.03;;;5.20;99.90;;;;;;5077839;28;20480;-82
2022/11/22 08:32:17;;;;;;;21.03;5.50;;;5.30;99.90;;;;;;5094699;28;20131;-82
2022/11/22 08:34:43;;;;;;;17.53;5.67;;;5.30;99.90;;;;;;5096119;28;20131;-82
2022/11/22 08:37:08;;;;;;;31.33;6.67;;;5.30;99.90;;;;;;5094611;28;20054;-81
2022/11/22 08:39:34;;;;;;;19.70;5.60;;;5.40;99.90;;;;;;5077673;28;20503;-81
2022/11/22 08:42:00;;;;;;;19.83;5.63;;;5.30;99.90;;;;;;5094414;28;20047;-81
2022/11/22 08:44:25;;;;;;;22.53;6.30;;;5.40;99.90;;;;;;5099770;28;20087;-82
2022/11/22 08:46:51;;;;;;;17.20;4.87;;;5.40;99.90;;;;;;5102064;28;20044;-78
2022/11/22 08:49:17;;;;;;;16.47;5.10;;;5.40;99.90;;;;;;5094436;28;20476;-80
2022/11/22 08:51:44;;;;;;;21.63;6.43;;;5.40;99.90;;;;;;5095594;28;20468;-80
2022/11/22 08:54:13;;;;;;;20.02;5.70;;;5.40;99.90;;;;;;5095208;28;20123;-79
2022/11/22 08:56:39;;;;;;;16.50;6.00;;;5.40;99.90;;;;;;5094782;28;20379;-81
2022/11/22 08:59:05;;;;;;;19.07;5.90;;;5.40;99.90;;;;;;5095290;28;20123;-80
2022/11/22 09:01:31;;;;;;;16.17;5.35;;;5.40;99.90;;;;;;5093896;28;20478;-83
2022/11/22 09:03:57;;;;;;;15.77;4.70;;;5.40;99.90;;;;;;5095365;28;20048;-79
2022/11/22 09:06:23;;;;;;;17.67;4.80;;;5.40;99.90;;;;;;5094738;28;20518;-79
2022/11/22 09:08:49;;;;;;;17.83;4.57;;;5.40;99.90;;;;;;5094023;28;20104;-75
2022/11/22 09:11:16;;;;;;;13.67;4.80;;;5.40;99.90;;;;;;5093764;28;20127;-75
2022/11/22 09:13:42;;;;;;;17.20;4.75;;;5.40;99.90;;;;;;5095173;28;20040;-76
2022/11/22 09:16:11;;;;;;;16.10;4.97;;;5.40;99.90;;;;;;5094786;28;20071;-76
2022/11/22 09:18:37;;;;;;;20.52;4.97;;;5.40;99.90;;;;;;5094078;28;20055;-75
2022/11/22 09:21:08;;;;;;;17.90;4.73;;;5.40;99.90;;;;;;5094737;28;20047;-76
2022/11/22 09:23:35;;;;;;;16.02;5.43;;;5.40;99.90;;;;;;5095094;28;20048;-76
2022/11/22 09:26:04;;;;;;;17.60;4.13;;;5.40;99.90;;;;;;5094881;28;20048;-75
2022/11/22 09:28:30;;;;;;;21.52;4.55;;;5.50;99.90;;;;;;5094695;28;20395;-75
2022/11/22 09:31:06;;;;;;;18.25;4.78;;;5.50;99.90;;;;;;5094105;28;20395;-76
2022/11/22 09:33:33;;;;;;;15.27;4.15;;;5.50;99.90;;;;;;5094214;28;20043;-77
2022/11/22 09:36:05;;;;;;;12.63;4.07;;;5.50;99.90;;;;;;5093923;28;20044;-79
2022/11/22 09:38:31;;;;;;;22.38;5.10;;;5.50;99.90;;;;;;5093949;28;20091;-76
2022/11/22 09:40:58;;;;;;;16.13;4.43;;;5.50;99.90;;;;;;5094558;28;20048;-75
2022/11/22 09:43:42;;;;;;;11.98;4.13;;;5.50;99.90;;;;;;5094291;28;20060;-76
2022/11/22 09:46:33;;;;;;;12.13;4.40;;;5.50;99.90;;;;;;5094275;28;20070;-78
2022/11/22 09:49:15;;;;;;;13.15;4.63;;;5.50;99.90;;;;;;5094446;28;20489;-80
2022/11/22 09:51:48;;;;;;;15.57;4.57;;;5.60;99.90;;;;;;5093601;28;20044;-77
2022/11/22 09:54:25;;;;;;;15.93;4.45;;;5.60;99.90;;;;;;5094299;28;20044;-78
2022/11/22 09:56:54;;;;;;;11.05;3.58;;;5.60;99.90;;;;;;5094399;28;20074;-78
2022/11/22 09:59:29;;;;;;;13.85;4.68;;;5.60;99.90;;;;;;5094105;28;20153;-77
2022/11/22 10:01:57;;;;;;;13.82;3.60;;;5.60;99.90;;;;;;5093075;28;20044;-77
2022/11/22 10:04:34;;;;;;;9.68;3.45;;;5.60;99.90;;;;;;5093903;28;20059;-76
2022/11/22 10:07:10;;;;;;;14.00;4.13;;;5.60;99.90;;;;;;5094174;28;20059;-76
2022/11/22 10:09:49;;;;;;;13.18;3.80;;;5.70;99.90;;;;;;5093237;28;20478;-77
2022/11/22 10:12:24;;;;;;;9.93;3.97;;;5.60;99.90;;;;;;5093890;28;20044;-77
2022/11/22 10:14:58;;;;;;;;;;;5.70;99.90;;;;;;5094480;28;20073;-78
2022/11/22 10:18:01;;;;;;;13.77;3.60;;;5.70;99.90;;;;;;5093398;28;19920;-78
2022/11/22 10:20:28;;;;;;;13.60;3.53;;;5.80;99.90;;;;;;5091415;28;20060;-77
2022/11/22 10:22:56;;;;;;;15.07;4.38;;;5.80;99.90;;;;;;5093783;28;20040;-78
2022/11/22 10:25:39;;;;;;;11.82;3.78;;;5.80;99.90;;;;;;5093669;28;20044;-83
2022/11/22 10:28:35;;;;;;;12.43;4.32;;;5.80;99.90;;;;;;5093824;28;20063;-82
2022/11/22 10:31:04;;;;;;;17.15;5.22;;;5.80;99.90;;;;;;5080113;28;20056;-87
2022/11/22 10:33:36;;;;;;;19.73;4.45;;;5.80;99.90;;;;;;5092422;28;20130;-82
2022/11/22 10:36:34;;;;;;;17.33;4.05;;;5.80;99.90;;;;;;5093704;28;20133;-81
2022/11/22 10:39:05;;;;;;;16.02;4.60;;;5.80;99.90;;;;;;5092878;28;20063;-78
2022/11/22 10:41:38;;;;;;;16.17;4.85;;;5.90;99.90;;;;;;5092132;28;20048;-78
2022/11/22 10:44:21;;;;;;;15.80;4.45;;;5.90;99.90;;;;;;5092409;28;20050;-80
2022/11/22 10:47:05;;;;;;;11.48;3.72;;;5.90;99.90;;;;;;5093675;28;20073;-78
2022/11/22 10:49:51;;;;;;;11.90;3.70;;;5.90;99.90;;;;;;5093027;28;20502;-77
2022/11/22 10:52:55;;;;;;;11.60;3.28;;;5.90;99.90;;;;;;5092145;28;20056;-76
2022/11/22 10:55:32;;;;;;;13.13;4.18;;;5.90;99.90;;;;;;5110969;28;20447;-77
2022/11/22 10:58:07;;;;;;;13.82;3.38;;;5.90;99.90;;;;;;5091632;28;20576;-77
2022/11/22 11:00:37;;;;;;;11.00;3.20;;;5.90;99.90;;;;;;5093069;28;20131;-78
2022/11/22 11:03:33;;;;;;;15.32;3.20;;;6.00;99.90;;;;;;5093479;28;20044;-78
2022/11/22 11:06:12;;;;;;;14.10;3.55;;;6.00;99.90;;;;;;5092288;28;20052;-80
2022/11/22 11:08:51;;;;;;;12.65;2.90;;;6.00;99.90;;;;;;5092057;28;20113;-83
2022/11/22 11:11:19;;;;;;;10.20;2.95;;;6.00;99.90;;;;;;5091463;28;20502;-81
2022/11/22 11:13:49;;;;;;;15.30;2.95;;;6.00;99.90;;;;;;5091987;28;20123;-83
2022/11/22 11:16:20;;;;;;;12.50;3.58;;;6.00;99.90;;;;;;5093171;28;20079;-84
2022/11/22 11:18:51;;;;;;;12.55;3.28;;;6.00;99.90;;;;;;5093281;28;20047;-86
2022/11/22 11:21:16;;;;;;;12.75;2.95;;;6.10;99.90;;;;;;5093213;28;20044;-86
2022/11/22 11:23:42;;;;;;;9.40;2.50;;;6.20;99.90;;;;;;5108908;28;20361;-83
2022/11/22 11:26:27;;;;;;;10.03;2.33;;;6.30;99.90;;;;;;5092909;28;20554;-82
2022/11/22 11:29:15;;;;;;;8.95;2.63;;;6.40;99.90;;;;;;5091837;28;20056;-85
2022/11/22 11:32:06;;;;;;;10.88;2.20;;;6.50;99.90;;;;;;5090920;28;20048;-85
2022/11/22 11:34:32;;;;;;;9.07;2.33;;;6.50;99.90;;;;;;5092693;28;20044;-85
2022/11/22 11:36:59;;;;;;;10.25;2.45;;;6.50;99.90;;;;;;5093215;28;20412;-84
2022/11/22 11:39:30;;;;;;;10.40;2.50;;;6.60;99.90;;;;;;5074889;28;20044;-85
2022/11/22 11:41:57;;;;;;;9.57;2.65;;;6.60;99.90;;;;;;5092957;28;20085;-85
2022/11/22 11:44:27;;;;;;;9.30;2.33;;;6.70;99.90;;;;;;5091685;28;20044;-84
2022/11/22 11:46:53;;;;;;;8.65;2.78;;;6.60;99.90;;;;;;5092886;28;20055;-85
2022/11/22 11:49:27;;;;;;;9.00;2.60;;;6.70;99.90;;;;;;5091887;28;20092;-85
2022/11/22 11:51:54;;;;;;;7.32;2.10;;;6.70;99.90;;;;;;5092861;28;20079;-85
2022/11/22 11:54:25;;;;;;;8.55;2.30;;;6.60;99.90;;;;;;5092879;28;20051;-85
2022/11/22 11:56:58;;;;;;;7.65;2.50;;;6.60;99.90;;;;;;5093352;28;20044;-85
2022/11/22 11:59:29;;;;;;;8.18;2.67;;;6.60;99.90;;;;;;5077103;28;20048;-84
2022/11/22 12:02:36;;;;;;;12.57;2.63;;;6.60;99.90;;;;;;5096544;28;20047;-85
2022/11/22 12:05:06;;;;;;;8.77;2.20;;;6.70;99.90;;;;;;5096611;28;20087;-84
2022/11/22 12:07:35;;;;;;;8.38;2.17;;;6.70;99.90;;;;;;5096265;28;20443;-85
2022/11/22 12:10:02;;;;;;;10.33;2.53;;;6.80;99.90;;;;;;5096429;28;20101;-86
2022/11/22 12:12:53;;;;;;;10.30;2.33;;;6.80;99.90;;;;;;5096071;28;20322;-85
2022/11/22 12:15:46;;;;;;;6.38;2.28;;;6.80;99.90;;;;;;5096488;28;20279;-84
2022/11/22 12:18:56;;;;;;;9.57;2.10;;;6.80;99.90;;;;;;5064366;28;20052;-85
2022/11/22 12:21:53;;;;;;;7.17;1.60;;;6.80;99.90;;;;;;5086367;28;20363;-85
2022/11/22 12:24:34;;;;;;;9.23;2.15;;;6.80;99.90;;;;;;5078171;28;20380;-85
2022/11/22 12:27:00;;;;;;;9.57;2.53;;;6.80;99.90;;;;;;5096142;28;20048;-85
2022/11/22 12:29:25;;;;;;;6.53;2.10;;;6.70;99.90;;;;;;5094822;28;20308;-85
2022/11/22 12:32:26;;;;;;;12.03;2.43;;;6.70;99.90;;;;;;5095748;28;20470;-86
2022/11/22 12:35:18;;;;;;;12.73;3.17;;;6.70;99.90;;;;;;5100892;28;20059;-85
2022/11/22 12:38:07;;;;;;;9.30;2.50;;;6.70;99.90;;;;;;5076646;28;20285;-83
2022/11/22 12:40:40;;;;;;;10.40;2.23;;;6.70;99.90;;;;;;5075398;28;20362;-88
2022/11/22 12:43:36;;;;;;;9.52;2.08;;;6.60;99.90;;;;;;5075073;28;20287;-91
2022/11/22 12:46:28;;;;;;;6.70;2.35;;;6.70;99.90;;;;;;5091494;28;20044;-91
2022/11/22 12:48:55;;;;;;;7.70;2.30;;;6.60;99.90;;;;;;5074183;28;20044;-84
2022/11/22 12:51:53;;;;;;;8.32;2.00;;;6.60;99.90;;;;;;5075360;28;20283;-89
2022/11/22 12:54:27;;;;;;;9.88;2.55;;;6.70;99.90;;;;;;5074630;28;20045;-86
2022/11/22 12:57:01;;;;;;;14.48;2.58;;;6.70;99.90;;;;;;5075189;28;20473;-92
2022/11/22 12:59:52;;;;;;;8.03;2.67;;;6.70;99.90;;;;;;5114674;27;20495;-89
2022/11/22 13:02:44;;;;;;;9.23;2.20;;;6.70;99.90;;;;;;5115710;27;20351;-83
2022/11/22 13:05:19;;;;;;;13.50;2.43;;;6.60;99.90;;;;;;5114170;28;20055;-82
2022/11/22 13:07:59;;;;;;;10.55;2.35;;;6.70;99.90;;;;;;5115499;28;20289;-76
2022/11/22 13:10:46;;;;;;;9.43;2.07;;;6.70;99.90;;;;;;5114508;28;20190;-78